Time,TemperatureF,DewpointF,PressureIn,WindDirection,WindDirectionDegrees,WindSpeedMPH,WindSpeedGustMPH,Humidity,HourlyPrecipIn,Conditions,Clouds,dailyrainin,SoftwareType,DateUTC
2013-01-31 00:02:00,31.0,22.4,29.96,WNW,292,19.0,23.0,70,0.00,,---,0.00,VWS V14.00,2013-01-31 06:02:00,
2013-01-31 00:07:00,31.0,22.0,29.96,WNW,292,23.0,23.0,69,0.00,,---,0.00,VWS V14.00,2013-01-31 06:07:00,
2013-01-31 00:12:00,31.0,22.0,29.97,West,270,14.0,19.0,69,0.00,,---,0.00,VWS V14.00,2013-01-31 06:12:00,
2013-01-31 00:17:00,31.0,22.4,29.97,West,270,18.0,19.0,70,0.00,,---,0.00,VWS V14.00,2013-01-31 06:17:00,
2013-01-31 00:22:00,31.0,21.7,29.97,WNW,292,16.0,17.0,68,0.00,,---,0.00,VWS V14.00,2013-01-31 06:22:00,
2013-01-31 00:27:00,31.0,22.0,29.97,WNW,292,21.0,22.0,69,0.00,,---,0.00,VWS V14.00,2013-01-31 06:27:00,
2013-01-31 00:32:00,31.0,22.0,29.98,WNW,292,18.0,18.0,69,0.00,,---,0.00,VWS V14.00,2013-01-31 06:32:00,
2013-01-31 00:37:00,31.0,22.4,29.98,West,270,13.0,13.0,70,0.00,,---,0.00,VWS V14.00,2013-01-31 06:37:00,
2013-01-31 00:42:00,31.0,22.4,29.98,WNW,292,14.0,22.0,70,0.00,,---,0.00,VWS V14.00,2013-01-31 06:42:00,
2013-01-31 00:47:00,31.0,22.7,29.98,West,270,13.0,13.0,71,0.00,,---,0.00,VWS V14.00,2013-01-31 06:47:00,
2013-01-31 00:52:00,30.0,21.4,29.98,WNW,292,15.0,18.0,70,0.00,,---,0.00,VWS V14.00,2013-01-31 06:52:00,
2013-01-31 00:57:00,30.0,21.4,29.98,WNW,292,18.0,20.0,70,0.00,,---,0.00,VWS V14.00,2013-01-31 06:57:00,
2013-01-31 01:02:00,30.0,21.8,29.98,WNW,292,14.0,16.0,71,0.00,,---,0.00,VWS V14.00,2013-01-31 07:02:00,
2013-01-31 01:07:00,30.0,21.8,29.98,WNW,292,19.0,19.0,71,0.00,,---,0.00,VWS V14.00,2013-01-31 07:07:00,
2013-01-31 01:12:00,30.0,21.8,29.98,WNW,292,17.0,18.0,71,0.00,,---,0.00,VWS V14.00,2013-01-31 07:12:00,
2013-01-31 01:17:00,30.0,21.8,29.98,WNW,292,19.0,20.0,71,0.00,,---,0.00,VWS V14.00,2013-01-31 07:17:00,
2013-01-31 01:22:00,30.0,22.1,29.98,WNW,292,16.0,18.0,72,0.00,,---,0.00,VWS V14.00,2013-01-31 07:22:00,
2013-01-31 01:27:00,30.0,21.8,29.97,WNW,292,17.0,17.0,71,0.00,,---,0.00,VWS V14.00,2013-01-31 07:27:00,
2013-01-31 01:32:00,30.0,22.1,29.98,WNW,292,15.0,15.0,72,0.00,,---,0.00,VWS V14.00,2013-01-31 07:32:00,
2013-01-31 01:37:00,30.0,22.1,29.97,WNW,292,13.0,14.0,72,0.00,,---,0.00,VWS V14.00,2013-01-31 07:37:00,
2013-01-31 01:42:00,30.0,22.4,29.98,WNW,292,13.0,13.0,73,0.00,,---,0.00,VWS V14.00,2013-01-31 07:42:00,
2013-01-31 01:47:00,30.0,22.4,29.98,West,270,13.0,14.0,73,0.00,,---,0.00,VWS V14.00,2013-01-31 07:47:00,
2013-01-31 01:52:00,30.0,22.4,29.98,West,270,13.0,13.0,73,0.00,,---,0.00,VWS V14.00,2013-01-31 07:52:00,
2013-01-31 01:57:00,30.0,21.8,29.98,West,270,12.0,13.0,71,0.00,,---,0.00,VWS V14.00,2013-01-31 07:57:00,
2013-01-31 02:02:00,30.0,21.1,29.97,WNW,292,18.0,19.0,69,0.00,,---,0.00,VWS V14.00,2013-01-31 08:02:00,
2013-01-31 02:07:00,30.0,21.1,29.98,West,270,20.0,21.0,69,0.00,,---,0.00,VWS V14.00,2013-01-31 08:07:00,
2013-01-31 02:12:00,30.0,21.1,29.98,WNW,292,19.0,19.0,69,0.00,,---,0.00,VWS V14.00,2013-01-31 08:12:00,
2013-01-31 02:17:00,30.0,20.7,29.98,WNW,292,18.0,21.0,68,0.00,,---,0.00,VWS V14.00,2013-01-31 08:17:00,
2013-01-31 02:22:00,30.0,20.7,29.98,West,270,18.0,18.0,68,0.00,,---,0.00,VWS V14.00,2013-01-31 08:22:00,
2013-01-31 02:27:00,30.0,21.1,29.98,West,270,11.0,11.0,69,0.00,,---,0.00,VWS V14.00,2013-01-31 08:27:00,
2013-01-31 02:32:00,30.0,20.7,29.98,WNW,292,17.0,20.0,68,0.00,,---,0.00,VWS V14.00,2013-01-31 08:32:00,
2013-01-31 02:37:00,30.0,20.7,29.98,West,270,13.0,14.0,68,0.00,,---,0.00,VWS V14.00,2013-01-31 08:37:00,
2013-01-31 02:42:00,30.0,21.1,29.99,WNW,292,16.0,16.0,69,0.00,,---,0.00,VWS V14.00,2013-01-31 08:42:00,
2013-01-31 02:47:00,30.0,21.4,29.99,WNW,292,11.0,14.0,70,0.00,,---,0.00,VWS V14.00,2013-01-31 08:47:00,
2013-01-31 02:52:00,30.0,21.4,29.99,WNW,292,12.0,13.0,70,0.00,,---,0.00,VWS V14.00,2013-01-31 08:52:00,
2013-01-31 02:57:00,30.0,21.4,30.00,West,270,13.0,13.0,70,0.00,,---,0.00,VWS V14.00,2013-01-31 08:57:00,
2013-01-31 03:02:00,30.0,21.4,30.00,WNW,292,13.0,17.0,70,0.00,,---,0.00,VWS V14.00,2013-01-31 09:02:00,
2013-01-31 03:07:00,30.0,21.8,30.00,West,270,10.0,13.0,71,0.00,,---,0.00,VWS V14.00,2013-01-31 09:07:00,
2013-01-31 03:12:00,30.0,21.8,30.00,WNW,292,9.0,11.0,71,0.00,,---,0.00,VWS V14.00,2013-01-31 09:12:00,
2013-01-31 03:17:00,30.0,22.1,30.00,WNW,292,11.0,13.0,72,0.00,,---,0.00,VWS V14.00,2013-01-31 09:17:00,
2013-01-31 03:22:00,30.0,22.1,30.00,WNW,292,8.0,11.0,72,0.00,,---,0.00,VWS V14.00,2013-01-31 09:22:00,
2013-01-31 03:27:00,30.0,22.1,29.99,WNW,292,13.0,13.0,72,0.00,,---,0.00,VWS V14.00,2013-01-31 09:27:00,
2013-01-31 03:32:00,30.0,22.1,29.99,WNW,292,9.0,11.0,72,0.00,,---,0.00,VWS V14.00,2013-01-31 09:32:00,
2013-01-31 03:37:00,30.0,22.4,29.99,WNW,292,11.0,14.0,73,0.00,,---,0.00,VWS V14.00,2013-01-31 09:37:00,
2013-01-31 03:42:00,30.0,22.1,29.99,West,270,12.0,14.0,72,0.00,,---,0.00,VWS V14.00,2013-01-31 09:42:00,
2013-01-31 03:47:00,30.0,22.1,29.99,WNW,292,11.0,15.0,72,0.00,,---,0.00,VWS V14.00,2013-01-31 09:47:00,
2013-01-31 03:52:00,30.0,22.1,29.99,WNW,292,13.0,14.0,72,0.00,,---,0.00,VWS V14.00,2013-01-31 09:52:00,
2013-01-31 03:57:00,29.0,21.8,29.99,WNW,292,11.0,14.0,74,0.00,,---,0.00,VWS V14.00,2013-01-31 09:57:00,
2013-01-31 04:02:00,30.0,22.4,29.99,WNW,292,14.0,14.0,73,0.00,,---,0.00,VWS V14.00,2013-01-31 10:02:00,
2013-01-31 04:07:00,30.0,22.1,29.99,West,270,13.0,13.0,72,0.00,,---,0.00,VWS V14.00,2013-01-31 10:07:00,
2013-01-31 04:12:00,30.0,22.1,30.00,WNW,292,11.0,13.0,72,0.00,,---,0.00,VWS V14.00,2013-01-31 10:12:00,
2013-01-31 04:17:00,30.0,22.4,30.00,West,270,11.0,13.0,73,0.00,,---,0.00,VWS V14.00,2013-01-31 10:17:00,
2013-01-31 04:22:00,30.0,22.4,30.00,West,270,9.0,13.0,73,0.00,,---,0.00,VWS V14.00,2013-01-31 10:22:00,
2013-01-31 04:27:00,29.0,21.8,30.00,WNW,292,12.0,12.0,74,0.00,,---,0.00,VWS V14.00,2013-01-31 10:27:00,
2013-01-31 04:32:00,29.0,21.8,30.00,West,270,10.0,11.0,74,0.00,,---,0.00,VWS V14.00,2013-01-31 10:32:00,
2013-01-31 04:37:00,30.0,22.7,30.00,West,270,13.0,14.0,74,0.00,,---,0.00,VWS V14.00,2013-01-31 10:37:00,
2013-01-31 04:42:00,30.0,22.7,30.01,West,270,9.0,14.0,74,0.00,,---,0.00,VWS V14.00,2013-01-31 10:42:00,
2013-01-31 04:47:00,30.0,22.7,30.01,WNW,292,10.0,13.0,74,0.00,,---,0.00,VWS V14.00,2013-01-31 10:47:00,
2013-01-31 04:52:00,29.0,21.8,30.01,WNW,292,18.0,18.0,74,0.00,,---,0.00,VWS V14.00,2013-01-31 10:52:00,
2013-01-31 04:57:00,29.0,21.1,30.01,WNW,292,15.0,19.0,72,0.00,,---,0.00,VWS V14.00,2013-01-31 10:57:00,
2013-01-31 05:02:00,29.0,21.4,30.02,WNW,292,14.0,16.0,73,0.00,,---,0.00,VWS V14.00,2013-01-31 11:02:00,
2013-01-31 05:07:00,29.0,21.4,30.02,WNW,292,13.0,17.0,73,0.00,,---,0.00,VWS V14.00,2013-01-31 11:07:00,
2013-01-31 05:12:00,29.0,21.4,30.03,WNW,292,12.0,14.0,73,0.00,,---,0.00,VWS V14.00,2013-01-31 11:12:00,
2013-01-31 05:17:00,29.0,21.4,30.03,WNW,292,10.0,15.0,73,0.00,,---,0.00,VWS V14.00,2013-01-31 11:17:00,
2013-01-31 05:22:00,29.0,21.1,30.03,WNW,292,13.0,16.0,72,0.00,,---,0.00,VWS V14.00,2013-01-31 11:22:00,
2013-01-31 05:27:00,29.0,21.4,30.03,WNW,292,10.0,12.0,73,0.00,,---,0.00,VWS V14.00,2013-01-31 11:27:00,
2013-01-31 05:32:00,29.0,21.4,30.03,West,270,11.0,11.0,73,0.00,,---,0.00,VWS V14.00,2013-01-31 11:32:00,
2013-01-31 05:37:00,29.0,21.8,30.02,WNW,292,8.0,10.0,74,0.00,,---,0.00,VWS V14.00,2013-01-31 11:37:00,
2013-01-31 05:42:00,29.0,21.8,30.02,WNW,292,11.0,12.0,74,0.00,,---,0.00,VWS V14.00,2013-01-31 11:42:00,
2013-01-31 05:47:00,29.0,21.1,30.02,WNW,292,10.0,13.0,72,0.00,,---,0.00,VWS V14.00,2013-01-31 11:47:00,
2013-01-31 05:52:00,29.0,21.4,30.03,West,270,9.0,11.0,73,0.00,,---,0.00,VWS V14.00,2013-01-31 11:52:00,
2013-01-31 05:57:00,29.0,21.4,30.03,West,270,7.0,11.0,73,0.00,,---,0.00,VWS V14.00,2013-01-31 11:57:00,
2013-01-31 06:02:00,29.0,21.4,30.02,West,270,6.0,8.0,73,0.00,,---,0.00,VWS V14.00,2013-01-31 12:02:00,
2013-01-31 06:07:00,29.0,21.8,30.02,West,270,6.0,6.0,74,0.00,,---,0.00,VWS V14.00,2013-01-31 12:07:00,
2013-01-31 06:12:00,28.0,21.1,30.02,West,270,5.0,6.0,75,0.00,,---,0.00,VWS V14.00,2013-01-31 12:12:00,
2013-01-31 06:17:00,28.0,21.1,30.02,WSW,248,5.0,6.0,75,0.00,,---,0.00,VWS V14.00,2013-01-31 12:17:00,
2013-01-31 06:22:00,28.0,21.1,30.03,WSW,248,10.0,10.0,75,0.00,,---,0.00,VWS V14.00,2013-01-31 12:22:00,
2013-01-31 06:27:00,28.0,21.1,30.03,WSW,248,8.0,10.0,75,0.00,,---,0.00,VWS V14.00,2013-01-31 12:27:00,
2013-01-31 06:32:00,28.0,20.8,30.04,WSW,248,10.0,10.0,74,0.00,,---,0.00,VWS V14.00,2013-01-31 12:32:00,
2013-01-31 06:37:00,29.0,21.4,30.04,WSW,248,14.0,14.0,73,0.00,,---,0.00,VWS V14.00,2013-01-31 12:37:00,
2013-01-31 06:42:00,29.0,21.4,30.04,WSW,248,11.0,11.0,73,0.00,,---,0.00,VWS V14.00,2013-01-31 12:42:00,
2013-01-31 06:46:00,29.0,21.4,30.05,WSW,248,11.0,16.0,73,0.00,,---,0.00,VWS V14.00,2013-01-31 12:46:00,
2013-01-31 06:51:00,29.0,21.4,30.05,WSW,248,14.0,14.0,73,0.00,,---,0.00,VWS V14.00,2013-01-31 12:51:00,
2013-01-31 06:56:00,29.0,21.1,30.05,WSW,248,11.0,13.0,72,0.00,,---,0.00,VWS V14.00,2013-01-31 12:56:00,
2013-01-31 07:01:00,29.0,21.1,30.05,WSW,248,13.0,13.0,72,0.00,,---,0.00,VWS V14.00,2013-01-31 13:01:00,
2013-01-31 07:06:00,29.0,21.1,30.05,WSW,248,9.0,13.0,72,0.00,,---,0.00,VWS V14.00,2013-01-31 13:06:00,
2013-01-31 07:11:00,29.0,21.1,30.06,WSW,248,13.0,13.0,72,0.00,,---,0.00,VWS V14.00,2013-01-31 13:11:00,
2013-01-31 07:16:00,29.0,20.8,30.06,WSW,248,10.0,13.0,71,0.00,,---,0.00,VWS V14.00,2013-01-31 13:16:00,
2013-01-31 07:21:00,29.0,21.4,30.06,WSW,248,9.0,12.0,73,0.00,,---,0.00,VWS V14.00,2013-01-31 13:21:00,
2013-01-31 07:26:00,29.0,21.1,30.06,WSW,248,10.0,11.0,72,0.00,,---,0.00,VWS V14.00,2013-01-31 13:26:00,
2013-01-31 07:31:00,29.0,21.1,30.07,SW,225,10.0,13.0,72,0.00,,---,0.00,VWS V14.00,2013-01-31 13:31:00,
2013-01-31 07:36:00,29.0,21.1,30.07,West,270,10.0,13.0,72,0.00,,---,0.00,VWS V14.00,2013-01-31 13:36:00,
2013-01-31 07:41:00,29.0,21.1,30.07,WSW,248,10.0,13.0,72,0.00,,---,0.00,VWS V14.00,2013-01-31 13:41:00,
2013-01-31 07:46:00,29.0,20.8,30.08,WSW,248,11.0,13.0,71,0.00,,---,0.00,VWS V14.00,2013-01-31 13:46:00,
2013-01-31 07:51:00,29.0,20.8,30.08,WSW,248,13.0,13.0,71,0.00,,---,0.00,VWS V14.00,2013-01-31 13:51:00,
2013-01-31 07:56:00,29.0,20.8,30.09,WNW,292,10.0,13.0,71,0.00,,---,0.00,VWS V14.00,2013-01-31 13:56:00,
2013-01-31 08:01:00,29.0,20.8,30.09,WSW,248,13.0,13.0,71,0.00,,---,0.00,VWS V14.00,2013-01-31 14:01:00,
2013-01-31 08:06:00,30.0,22.1,30.09,WSW,248,9.0,10.0,72,0.00,,---,0.00,VWS V14.00,2013-01-31 14:06:00,
2013-01-31 08:11:00,30.0,22.4,30.09,SW,225,11.0,11.0,73,0.00,,---,0.00,VWS V14.00,2013-01-31 14:11:00,
2013-01-31 08:16:00,30.0,22.4,30.09,SW,225,9.0,11.0,73,0.00,,---,0.00,VWS V14.00,2013-01-31 14:16:00,
2013-01-31 08:21:00,30.0,22.4,30.08,SW,225,12.0,16.0,73,0.00,,---,0.00,VWS V14.00,2013-01-31 14:21:00,
2013-01-31 08:26:00,30.0,22.1,30.09,SW,225,11.0,13.0,72,0.00,,---,0.00,VWS V14.00,2013-01-31 14:26:00,
2013-01-31 08:31:00,30.0,22.1,30.09,SW,225,12.0,13.0,72,0.00,,---,0.00,VWS V14.00,2013-01-31 14:31:00,
2013-01-31 08:36:00,31.0,23.4,30.09,SW,225,10.0,11.0,73,0.00,,---,0.00,VWS V14.00,2013-01-31 14:36:00,
2013-01-31 08:41:00,30.0,22.1,30.09,SW,225,17.0,17.0,72,0.00,,---,0.00,VWS V14.00,2013-01-31 14:41:00,
2013-01-31 08:46:00,31.0,23.0,30.10,SW,225,18.0,19.0,72,0.00,,---,0.00,VWS V14.00,2013-01-31 14:46:00,
2013-01-31 08:51:00,31.0,23.0,30.10,SW,225,13.0,19.0,72,0.00,,---,0.00,VWS V14.00,2013-01-31 14:51:00,
2013-01-31 08:56:00,30.0,21.8,30.08,SW,225,11.0,16.0,71,0.00,,---,0.00,VWS V14.00,2013-01-31 14:56:00,
2013-01-31 09:01:00,30.0,22.1,30.09,WSW,248,14.0,16.0,72,0.00,,---,0.00,VWS V14.00,2013-01-31 15:01:00,
2013-01-31 09:06:00,31.0,23.0,30.10,WSW,248,13.0,19.0,72,0.00,,---,0.00,VWS V14.00,2013-01-31 15:06:00,
2013-01-31 09:11:00,31.0,22.7,30.10,SW,225,13.0,17.0,71,0.00,,---,0.00,VWS V14.00,2013-01-31 15:11:00,
2013-01-31 09:16:00,31.0,23.0,30.10,WSW,248,11.0,14.0,72,0.00,,---,0.00,VWS V14.00,2013-01-31 15:16:00,
2013-01-31 09:21:00,31.0,23.4,30.11,SW,225,14.0,17.0,73,0.00,,---,0.00,VWS V14.00,2013-01-31 15:21:00,
2013-01-31 09:26:00,31.0,23.0,30.11,WSW,248,17.0,18.0,72,0.00,,---,0.00,VWS V14.00,2013-01-31 15:26:00,
2013-01-31 09:31:00,31.0,23.0,30.12,WSW,248,14.0,19.0,72,0.00,,---,0.00,VWS V14.00,2013-01-31 15:31:00,
2013-01-31 09:36:00,31.0,22.7,30.12,SSW,202,11.0,16.0,71,0.00,,---,0.00,VWS V14.00,2013-01-31 15:36:00,
2013-01-31 09:41:00,32.0,24.3,30.12,SW,225,11.0,14.0,73,0.00,,---,0.00,VWS V14.00,2013-01-31 15:41:00,
2013-01-31 09:46:00,32.0,24.0,30.12,SW,225,14.0,18.0,72,0.00,,---,0.00,VWS V14.00,2013-01-31 15:46:00,
2013-01-31 09:51:00,32.0,23.7,30.12,WSW,248,14.0,20.0,71,0.00,,---,0.00,VWS V14.00,2013-01-31 15:51:00,
2013-01-31 09:56:00,32.0,23.3,30.11,SW,225,12.0,14.0,70,0.00,,---,0.00,VWS V14.00,2013-01-31 15:56:00,
2013-01-31 10:01:00,32.0,23.7,30.12,SW,225,11.0,13.0,71,0.00,,---,0.00,VWS V14.00,2013-01-31 16:01:00,
2013-01-31 10:06:00,32.0,24.0,30.12,WSW,248,11.0,14.0,72,0.00,,---,0.00,VWS V14.00,2013-01-31 16:06:00,
2013-01-31 10:11:00,33.0,25.6,30.12,WSW,248,15.0,18.0,74,0.00,,---,0.00,VWS V14.00,2013-01-31 16:11:00,
2013-01-31 10:16:00,33.0,25.0,30.12,SW,225,12.0,12.0,72,0.00,,---,0.00,VWS V14.00,2013-01-31 16:16:00,
2013-01-31 10:21:00,32.0,23.7,30.12,SW,225,13.0,17.0,71,0.00,,---,0.00,VWS V14.00,2013-01-31 16:21:00,
2013-01-31 10:26:00,33.0,25.0,30.12,SW,225,13.0,17.0,72,0.00,,---,0.00,VWS V14.00,2013-01-31 16:26:00,
2013-01-31 10:31:00,33.0,25.6,30.12,WSW,248,12.0,15.0,74,0.00,,---,0.00,VWS V14.00,2013-01-31 16:31:00,
2013-01-31 10:36:00,33.0,26.0,30.13,SW,225,16.0,16.0,75,0.00,,---,0.00,VWS V14.00,2013-01-31 16:36:00,
2013-01-31 10:41:00,33.0,26.0,30.13,SW,225,15.0,17.0,75,0.00,,---,0.00,VWS V14.00,2013-01-31 16:41:00,
2013-01-31 10:46:00,33.0,25.6,30.13,WSW,248,13.0,19.0,74,0.00,,---,0.00,VWS V14.00,2013-01-31 16:46:00,
2013-01-31 10:51:00,33.0,25.3,30.12,WSW,248,15.0,17.0,73,0.00,,---,0.00,VWS V14.00,2013-01-31 16:51:00,
2013-01-31 10:56:00,33.0,25.3,30.12,SW,225,11.0,14.0,73,0.00,,---,0.00,VWS V14.00,2013-01-31 16:56:00,
2013-01-31 11:01:00,33.0,24.3,30.11,WSW,248,18.0,18.0,70,0.00,,---,0.00,VWS V14.00,2013-01-31 17:01:00,
2013-01-31 11:06:00,33.0,24.3,30.12,SW,225,10.0,14.0,70,0.00,,---,0.00,VWS V14.00,2013-01-31 17:06:00,
2013-01-31 11:11:00,34.0,25.6,30.12,SW,225,15.0,18.0,71,0.00,,---,0.00,VWS V14.00,2013-01-31 17:11:00,
2013-01-31 11:16:00,34.0,24.9,30.12,WSW,248,15.0,18.0,69,0.00,,---,0.00,VWS V14.00,2013-01-31 17:16:00,
2013-01-31 11:21:00,34.0,24.6,30.12,WSW,248,16.0,18.0,68,0.00,,---,0.00,VWS V14.00,2013-01-31 17:21:00,
2013-01-31 11:26:00,34.0,24.2,30.12,SW,225,15.0,16.0,67,0.00,,---,0.00,VWS V14.00,2013-01-31 17:26:00,
2013-01-31 11:31:00,34.0,24.2,30.12,SW,225,16.0,23.0,67,0.00,,---,0.00,VWS V14.00,2013-01-31 17:31:00,
2013-01-31 11:36:00,35.0,25.5,30.12,SW,225,16.0,22.0,68,0.00,,---,0.00,VWS V14.00,2013-01-31 17:36:00,
2013-01-31 11:41:00,35.0,25.9,30.12,SW,225,16.0,18.0,69,0.00,,---,0.00,VWS V14.00,2013-01-31 17:41:00,
2013-01-31 11:46:00,34.0,23.5,30.11,WSW,248,14.0,16.0,65,0.00,,---,0.00,VWS V14.00,2013-01-31 17:46:00,
2013-01-31 11:51:00,35.0,25.2,30.11,SW,225,13.0,15.0,67,0.00,,---,0.00,VWS V14.00,2013-01-31 17:51:00,
2013-01-31 11:56:00,35.0,24.8,30.11,SW,225,16.0,18.0,66,0.00,,---,0.00,VWS V14.00,2013-01-31 17:56:00,
2013-01-31 12:01:00,35.0,24.8,30.10,SW,225,17.0,17.0,66,0.00,,---,0.00,VWS V14.00,2013-01-31 18:01:00,
2013-01-31 12:06:00,35.0,24.4,30.10,WSW,248,15.0,18.0,65,0.00,,---,0.00,VWS V14.00,2013-01-31 18:06:00,
2013-01-31 12:11:00,35.0,25.2,30.09,WSW,248,14.0,14.0,67,0.00,,---,0.00,VWS V14.00,2013-01-31 18:11:00,
2013-01-31 12:16:00,35.0,24.8,30.09,WSW,248,13.0,15.0,66,0.00,,---,0.00,VWS V14.00,2013-01-31 18:16:00,
2013-01-31 12:21:00,36.0,25.8,30.09,WSW,248,16.0,17.0,66,0.00,,---,0.00,VWS V14.00,2013-01-31 18:21:00,
2013-01-31 12:26:00,36.0,25.8,30.09,SW,225,11.0,18.0,66,0.00,,---,0.00,VWS V14.00,2013-01-31 18:26:00,
2013-01-31 12:31:00,36.0,25.8,30.08,WSW,248,14.0,14.0,66,0.00,,---,0.00,VWS V14.00,2013-01-31 18:31:00,
2013-01-31 12:36:00,36.0,26.1,30.08,SW,225,14.0,14.0,67,0.00,,---,0.00,VWS V14.00,2013-01-31 18:36:00,
2013-01-31 12:41:00,36.0,26.1,30.08,WSW,248,13.0,13.0,67,0.00,,---,0.00,VWS V14.00,2013-01-31 18:41:00,
2013-01-31 12:46:00,37.0,27.1,30.08,SW,225,11.0,12.0,67,0.00,,---,0.00,VWS V14.00,2013-01-31 18:46:00,
2013-01-31 12:51:00,36.0,25.4,30.07,SW,225,17.0,19.0,65,0.00,,---,0.00,VWS V14.00,2013-01-31 18:51:00,
2013-01-31 12:56:00,37.0,26.3,30.07,SW,225,17.0,18.0,65,0.00,,---,0.00,VWS V14.00,2013-01-31 18:56:00,
2013-01-31 13:01:00,36.0,24.3,30.07,WSW,248,13.0,14.0,62,0.00,,---,0.00,VWS V14.00,2013-01-31 19:01:00,
2013-01-31 13:06:00,37.0,26.0,30.07,SSW,202,12.0,12.0,64,0.00,,---,0.00,VWS V14.00,2013-01-31 19:06:00,
2013-01-31 13:11:00,37.0,26.0,30.06,SSW,202,11.0,13.0,64,0.00,,---,0.00,VWS V14.00,2013-01-31 19:11:00,
2013-01-31 13:16:00,37.0,26.0,30.06,SW,225,13.0,13.0,64,0.00,,---,0.00,VWS V14.00,2013-01-31 19:16:00,
2013-01-31 13:21:00,37.0,26.3,30.06,SW,225,9.0,11.0,65,0.00,,---,0.00,VWS V14.00,2013-01-31 19:21:00,
2013-01-31 13:26:00,38.0,28.4,30.05,SW,225,11.0,13.0,68,0.00,,---,0.00,VWS V14.00,2013-01-31 19:26:00,
2013-01-31 13:31:00,38.0,28.4,30.05,WSW,248,8.0,12.0,68,0.00,,---,0.00,VWS V14.00,2013-01-31 19:31:00,
2013-01-31 13:36:00,38.0,27.3,30.05,SW,225,16.0,16.0,65,0.00,,---,0.00,VWS V14.00,2013-01-31 19:36:00,
2013-01-31 13:41:00,38.0,27.7,30.05,SW,225,13.0,14.0,66,0.00,,---,0.00,VWS V14.00,2013-01-31 19:41:00,
2013-01-31 13:46:00,38.0,27.7,30.04,West,270,14.0,14.0,66,0.00,,---,0.00,VWS V14.00,2013-01-31 19:46:00,
2013-01-31 13:51:00,39.0,28.6,30.04,SSW,202,11.0,13.0,66,0.00,,---,0.00,VWS V14.00,2013-01-31 19:51:00,
2013-01-31 13:56:00,38.0,26.5,30.05,SW,225,14.0,16.0,63,0.00,,---,0.00,VWS V14.00,2013-01-31 19:56:00,
2013-01-31 14:01:00,38.0,26.9,30.04,SSW,202,13.0,14.0,64,0.00,,---,0.00,VWS V14.00,2013-01-31 20:01:00,
2013-01-31 14:06:00,39.0,26.7,30.04,SW,225,14.0,16.0,61,0.00,,---,0.00,VWS V14.00,2013-01-31 20:06:00,
2013-01-31 14:11:00,38.0,26.1,30.04,WSW,248,19.0,23.0,62,0.00,,---,0.00,VWS V14.00,2013-01-31 20:11:00,
2013-01-31 14:16:00,39.0,27.5,30.04,WSW,248,21.0,21.0,63,0.00,,---,0.00,VWS V14.00,2013-01-31 20:16:00,
2013-01-31 14:21:00,38.0,26.5,30.04,WSW,248,16.0,16.0,63,0.00,,---,0.00,VWS V14.00,2013-01-31 20:21:00,
2013-01-31 14:26:00,38.0,26.9,30.05,WSW,248,19.0,20.0,64,0.00,,---,0.00,VWS V14.00,2013-01-31 20:26:00,
2013-01-31 14:31:00,38.0,26.9,30.05,WSW,248,16.0,21.0,64,0.00,,---,0.00,VWS V14.00,2013-01-31 20:31:00,
2013-01-31 14:36:00,38.0,26.9,30.04,WSW,248,12.0,14.0,64,0.00,,---,0.00,VWS V14.00,2013-01-31 20:36:00,
2013-01-31 14:41:00,38.0,26.9,30.04,WSW,248,14.0,16.0,64,0.00,,---,0.00,VWS V14.00,2013-01-31 20:41:00,
2013-01-31 14:46:00,38.0,27.7,30.05,WSW,248,15.0,19.0,66,0.00,,---,0.00,VWS V14.00,2013-01-31 20:46:00,
2013-01-31 14:51:00,38.0,28.4,30.06,SW,225,18.0,19.0,68,0.00,,---,0.00,VWS V14.00,2013-01-31 20:51:00,
2013-01-31 14:56:00,38.0,27.7,30.05,SW,225,11.0,15.0,66,0.00,,---,0.00,VWS V14.00,2013-01-31 20:56:00,
2013-01-31 15:01:00,38.0,27.3,30.05,SW,225,16.0,19.0,65,0.00,,---,0.00,VWS V14.00,2013-01-31 21:01:00,
2013-01-31 15:06:00,38.0,27.7,30.05,WSW,248,14.0,18.0,66,0.00,,---,0.00,VWS V14.00,2013-01-31 21:06:00,
2013-01-31 15:11:00,39.0,28.6,30.05,SW,225,11.0,12.0,66,0.00,,---,0.00,VWS V14.00,2013-01-31 21:11:00,
2013-01-31 15:16:00,39.0,28.2,30.05,SW,225,18.0,20.0,65,0.00,,---,0.00,VWS V14.00,2013-01-31 21:16:00,
2013-01-31 15:21:00,39.0,28.6,30.05,SW,225,10.0,13.0,66,0.00,,---,0.00,VWS V14.00,2013-01-31 21:21:00,
2013-01-31 15:26:00,39.0,29.0,30.05,SW,225,11.0,12.0,67,0.00,,---,0.00,VWS V14.00,2013-01-31 21:26:00,
2013-01-31 15:31:00,39.0,28.6,30.06,SW,225,15.0,18.0,66,0.00,,---,0.00,VWS V14.00,2013-01-31 21:31:00,
2013-01-31 15:36:00,39.0,29.0,30.06,SW,225,15.0,15.0,67,0.00,,---,0.00,VWS V14.00,2013-01-31 21:36:00,
2013-01-31 15:41:00,39.0,29.0,30.05,WSW,248,13.0,14.0,67,0.00,,---,0.00,VWS V14.00,2013-01-31 21:41:00,
2013-01-31 15:46:00,39.0,29.4,30.05,SW,225,13.0,16.0,68,0.00,,---,0.00,VWS V14.00,2013-01-31 21:46:00,
2013-01-31 15:51:00,39.0,29.4,30.06,WSW,248,12.0,14.0,68,0.00,,---,0.00,VWS V14.00,2013-01-31 21:51:00,
2013-01-31 15:56:00,39.0,29.7,30.06,WSW,248,14.0,16.0,69,0.00,,---,0.00,VWS V14.00,2013-01-31 21:56:00,
2013-01-31 16:01:00,39.0,29.4,30.06,SW,225,13.0,16.0,68,0.00,,---,0.00,VWS V14.00,2013-01-31 22:01:00,
2013-01-31 16:06:00,39.0,29.7,30.06,WSW,248,14.0,16.0,69,0.00,,---,0.00,VWS V14.00,2013-01-31 22:06:00,
2013-01-31 16:11:00,38.0,29.1,30.06,WSW,248,18.0,19.0,70,0.00,,---,0.00,VWS V14.00,2013-01-31 22:11:00,
2013-01-31 16:16:00,38.0,29.5,30.06,WSW,248,14.0,15.0,71,0.00,,---,0.00,VWS V14.00,2013-01-31 22:16:00,
2013-01-31 16:21:00,38.0,29.5,30.06,WSW,248,12.0,19.0,71,0.00,,---,0.00,VWS V14.00,2013-01-31 22:21:00,
2013-01-31 16:26:00,38.0,29.8,30.07,WSW,248,22.0,24.0,72,0.00,,---,0.00,VWS V14.00,2013-01-31 22:26:00,
2013-01-31 16:31:00,38.0,30.1,30.07,WSW,248,19.0,21.0,73,0.00,,---,0.00,VWS V14.00,2013-01-31 22:31:00,
2013-01-31 16:36:00,38.0,30.5,30.07,West,270,17.0,17.0,74,0.00,,---,0.00,VWS V14.00,2013-01-31 22:36:00,
2013-01-31 16:41:00,38.0,31.1,30.08,WSW,248,15.0,18.0,76,0.00,,---,0.00,VWS V14.00,2013-01-31 22:41:00,
2013-01-31 16:46:00,37.0,30.5,30.08,WSW,248,16.0,18.0,77,0.00,,---,0.00,VWS V14.00,2013-01-31 22:46:00,
2013-01-31 16:51:00,37.0,30.5,30.08,West,270,18.0,20.0,77,0.00,,---,0.00,VWS V14.00,2013-01-31 22:51:00,
2013-01-31 16:56:00,37.0,31.1,30.08,West,270,21.0,23.0,79,0.00,,---,0.00,VWS V14.00,2013-01-31 22:56:00,
2013-01-31 17:01:00,36.0,31.0,30.08,WNW,292,13.0,13.0,82,0.00,,---,0.00,VWS V14.00,2013-01-31 23:01:00,
2013-01-31 17:06:00,35.0,31.2,30.08,West,270,13.0,24.0,86,0.00,,---,0.00,VWS V14.00,2013-01-31 23:06:00,
2013-01-31 17:11:00,35.0,32.1,30.08,WSW,248,13.0,13.0,89,0.00,,---,0.00,VWS V14.00,2013-01-31 23:11:00,
2013-01-31 17:16:00,35.0,32.6,30.08,West,270,17.0,19.0,91,0.00,,---,0.00,VWS V14.00,2013-01-31 23:16:00,
2013-01-31 17:21:00,34.0,31.9,30.08,West,270,11.0,18.0,92,0.00,,---,0.00,VWS V14.00,2013-01-31 23:21:00,
2013-01-31 17:26:00,34.0,32.2,30.09,West,270,11.0,19.0,93,0.00,,---,0.00,VWS V14.00,2013-01-31 23:26:00,
2013-01-31 17:31:00,34.0,32.7,30.09,WSW,248,16.0,16.0,95,0.00,,---,0.00,VWS V14.00,2013-01-31 23:31:00,
2013-01-31 17:36:00,34.0,33.0,30.09,West,270,11.0,17.0,96,0.00,,---,0.00,VWS V14.00,2013-01-31 23:36:00,
2013-01-31 17:41:00,34.0,33.0,30.09,West,270,11.0,14.0,96,0.00,,---,0.00,VWS V14.00,2013-01-31 23:41:00,
2013-01-31 17:46:00,33.0,32.2,30.10,WNW,292,8.0,13.0,97,0.00,,---,0.00,VWS V14.00,2013-01-31 23:46:00,
2013-01-31 17:51:00,33.0,32.2,30.10,West,270,10.0,14.0,97,0.01,,---,0.01,VWS V14.00,2013-01-31 23:51:00,
2013-01-31 17:56:00,33.0,32.2,30.10,WSW,248,11.0,12.0,97,0.01,,---,0.01,VWS V14.00,2013-01-31 23:56:00,
2013-01-31 18:01:00,32.0,31.2,30.10,WNW,292,24.0,34.0,97,0.01,,---,0.01,VWS V14.00,2013-02-01 00:01:00,
2013-01-31 18:06:00,31.0,30.5,30.11,WNW,292,19.0,21.0,98,0.01,,---,0.01,VWS V14.00,2013-02-01 00:06:00,
2013-01-31 18:11:00,31.0,30.5,30.12,WNW,292,19.0,26.0,98,0.01,,---,0.01,VWS V14.00,2013-02-01 00:11:00,
2013-01-31 18:16:00,31.0,30.5,30.12,WNW,292,14.0,23.0,98,0.01,,---,0.01,VWS V14.00,2013-02-01 00:16:00,
2013-01-31 18:21:00,31.0,30.5,30.11,WNW,292,19.0,26.0,98,0.01,,---,0.01,VWS V14.00,2013-02-01 00:21:00,
2013-01-31 18:26:00,31.0,30.2,30.12,West,270,17.0,22.0,97,0.01,,---,0.01,VWS V14.00,2013-02-01 00:26:00,
2013-01-31 18:31:00,31.0,30.2,30.12,WNW,292,19.0,23.0,97,0.01,,---,0.01,VWS V14.00,2013-02-01 00:31:00,
2013-01-31 18:36:00,31.0,30.0,30.13,WNW,292,14.0,18.0,96,0.01,,---,0.01,VWS V14.00,2013-02-01 00:36:00,
2013-01-31 18:41:00,32.0,30.7,30.14,WNW,292,21.0,23.0,95,0.01,,---,0.01,VWS V14.00,2013-02-01 00:41:00,
2013-01-31 18:46:00,32.0,30.7,30.13,WNW,292,13.0,18.0,95,0.01,,---,0.01,VWS V14.00,2013-02-01 00:46:00,
2013-01-31 18:51:00,32.0,30.5,30.13,WNW,292,14.0,18.0,94,0.01,,---,0.01,VWS V14.00,2013-02-01 00:51:00,
2013-01-31 18:56:00,32.0,30.5,30.14,WNW,292,19.0,20.0,94,0.00,,---,0.01,VWS V14.00,2013-02-01 00:56:00,
2013-01-31 19:01:00,32.0,30.2,30.14,WNW,292,18.0,21.0,93,0.00,,---,0.01,VWS V14.00,2013-02-01 01:01:00,
2013-01-31 19:06:00,32.0,29.9,30.15,WNW,292,16.0,16.0,92,0.00,,---,0.01,VWS V14.00,2013-02-01 01:06:00,
2013-01-31 19:11:00,32.0,29.7,30.15,West,270,18.0,21.0,91,0.00,,---,0.01,VWS V14.00,2013-02-01 01:11:00,
2013-01-31 19:16:00,32.0,28.3,30.15,WNW,292,26.0,32.0,86,0.00,,---,0.01,VWS V14.00,2013-02-01 01:16:00,
2013-01-31 19:21:00,31.0,24.6,30.16,WNW,292,29.0,30.0,77,0.00,,---,0.01,VWS V14.00,2013-02-01 01:21:00,
2013-01-31 19:26:00,31.0,23.4,30.16,West,270,21.0,23.0,73,0.00,,---,0.01,VWS V14.00,2013-02-01 01:26:00,
2013-01-31 19:31:00,31.0,22.0,30.17,WNW,292,24.0,33.0,69,0.00,,---,0.01,VWS V14.00,2013-02-01 01:31:00,
2013-01-31 19:36:00,30.0,20.7,30.17,WNW,292,28.0,31.0,68,0.00,,---,0.01,VWS V14.00,2013-02-01 01:36:00,
2013-01-31 19:41:00,30.0,20.7,30.17,WNW,292,23.0,27.0,68,0.00,,---,0.01,VWS V14.00,2013-02-01 01:41:00,
2013-01-31 19:46:00,30.0,21.8,30.18,WNW,292,21.0,21.0,71,0.00,,---,0.01,VWS V14.00,2013-02-01 01:46:00,
2013-01-31 19:51:00,30.0,21.8,30.18,NW,315,16.0,26.0,71,0.00,,---,0.01,VWS V14.00,2013-02-01 01:51:00,
2013-01-31 19:56:00,29.0,21.1,30.19,NW,315,21.0,29.0,72,0.00,,---,0.01,VWS V14.00,2013-02-01 01:56:00,
2013-01-31 20:01:00,29.0,20.1,30.19,NW,315,16.0,23.0,69,0.00,,---,0.01,VWS V14.00,2013-02-01 02:01:00,
2013-01-31 20:06:00,28.0,18.5,30.19,NW,315,24.0,26.0,67,0.00,,---,0.01,VWS V14.00,2013-02-01 02:06:00,
2013-01-31 20:11:00,28.0,19.2,30.20,NW,315,16.0,23.0,69,0.00,,---,0.01,VWS V14.00,2013-02-01 02:11:00,
2013-01-31 20:16:00,28.0,18.5,30.20,WNW,292,23.0,24.0,67,0.00,,---,0.01,VWS V14.00,2013-02-01 02:16:00,
2013-01-31 20:21:00,27.0,18.5,30.21,WNW,292,18.0,21.0,70,0.00,,---,0.01,VWS V14.00,2013-02-01 02:21:00,
2013-01-31 20:26:00,27.0,19.5,30.22,NNW,338,16.0,23.0,73,0.00,,---,0.01,VWS V14.00,2013-02-01 02:26:00,
2013-01-31 20:31:00,26.0,19.5,30.22,NW,315,13.0,19.0,76,0.00,,---,0.01,VWS V14.00,2013-02-01 02:31:00,
2013-01-31 20:36:00,25.0,18.8,30.23,NW,315,11.0,25.0,77,0.00,,---,0.01,VWS V14.00,2013-02-01 02:36:00,
2013-01-31 20:41:00,25.0,18.8,30.23,NW,315,18.0,26.0,77,0.00,,---,0.01,VWS V14.00,2013-02-01 02:41:00,
2013-01-31 20:46:00,25.0,18.8,30.23,NNW,338,23.0,26.0,77,0.00,,---,0.01,VWS V14.00,2013-02-01 02:46:00,
2013-01-31 20:51:00,24.0,17.9,30.24,NW,315,14.0,18.0,77,0.00,,---,0.01,VWS V14.00,2013-02-01 02:51:00,
2013-01-31 20:56:00,24.0,17.5,30.24,NW,315,13.0,21.0,76,0.00,,---,0.01,VWS V14.00,2013-02-01 02:56:00,
2013-01-31 21:01:00,24.0,17.2,30.25,NW,315,11.0,19.0,75,0.00,,---,0.01,VWS V14.00,2013-02-01 03:01:00,
2013-01-31 21:06:00,24.0,17.2,30.25,NW,315,13.0,20.0,75,0.00,,---,0.01,VWS V14.00,2013-02-01 03:06:00,
2013-01-31 21:11:00,24.0,17.5,30.26,WNW,292,16.0,16.0,76,0.00,,---,0.01,VWS V14.00,2013-02-01 03:11:00,
2013-01-31 21:16:00,23.0,16.6,30.26,NNW,338,9.0,15.0,76,0.00,,---,0.01,VWS V14.00,2013-02-01 03:16:00,
2013-01-31 21:20:00,23.0,16.9,30.27,NW,315,16.0,18.0,77,0.00,,---,0.01,VWS V14.00,2013-02-01 03:20:00,
2013-01-31 21:25:00,23.0,16.3,30.26,NW,315,11.0,23.0,75,0.00,,---,0.01,VWS V14.00,2013-02-01 03:25:00,
2013-01-31 21:30:00,23.0,16.0,30.27,WNW,292,17.0,21.0,74,0.00,,---,0.01,VWS V14.00,2013-02-01 03:30:00,
2013-01-31 21:35:00,23.0,15.6,30.27,NW,315,18.0,19.0,73,0.00,,---,0.01,VWS V14.00,2013-02-01 03:35:00,
2013-01-31 21:40:00,23.0,16.0,30.28,NNW,338,11.0,14.0,74,0.00,,---,0.01,VWS V14.00,2013-02-01 03:40:00,
2013-01-31 21:45:00,23.0,15.3,30.28,WNW,292,15.0,24.0,72,0.00,,---,0.01,VWS V14.00,2013-02-01 03:45:00,
2013-01-31 21:50:00,23.0,15.3,30.28,NW,315,11.0,17.0,72,0.00,,---,0.01,VWS V14.00,2013-02-01 03:50:00,
2013-01-31 21:55:00,22.0,14.1,30.28,NW,315,13.0,18.0,71,0.00,,---,0.01,VWS V14.00,2013-02-01 03:55:00,
2013-01-31 22:00:00,22.0,13.4,30.29,WNW,292,18.0,20.0,69,0.00,,---,0.01,VWS V14.00,2013-02-01 04:00:00,
2013-01-31 22:05:00,22.0,13.1,30.29,NW,315,13.0,19.0,68,0.00,,---,0.01,VWS V14.00,2013-02-01 04:05:00,
2013-01-31 22:10:00,22.0,12.7,30.29,WNW,292,18.0,21.0,67,0.00,,---,0.01,VWS V14.00,2013-02-01 04:10:00,
2013-01-31 22:15:00,22.0,12.7,30.30,WNW,292,19.0,24.0,67,0.00,,---,0.01,VWS V14.00,2013-02-01 04:15:00,
2013-01-31 22:20:00,21.0,11.8,30.30,NW,315,13.0,19.0,67,0.00,,---,0.01,VWS V14.00,2013-02-01 04:20:00,
2013-01-31 22:25:00,21.0,12.1,30.31,WNW,292,22.0,23.0,68,0.00,,---,0.01,VWS V14.00,2013-02-01 04:25:00,
2013-01-31 22:30:00,21.0,11.8,30.31,WNW,292,21.0,24.0,67,0.00,,---,0.01,VWS V14.00,2013-02-01 04:30:00,
2013-01-31 22:35:00,21.0,11.8,30.31,WNW,292,17.0,24.0,67,0.00,,---,0.01,VWS V14.00,2013-02-01 04:35:00,
2013-01-31 22:40:00,21.0,11.8,30.32,NW,315,17.0,19.0,67,0.00,,---,0.01,VWS V14.00,2013-02-01 04:40:00,
2013-01-31 22:45:00,21.0,12.1,30.32,WNW,292,21.0,23.0,68,0.00,,---,0.01,VWS V14.00,2013-02-01 04:45:00,
2013-01-31 22:50:00,21.0,12.8,30.32,WNW,292,13.0,14.0,70,0.00,,---,0.01,VWS V14.00,2013-02-01 04:50:00,
2013-01-31 22:55:00,20.0,11.8,30.32,NW,315,12.0,16.0,70,0.00,,---,0.01,VWS V14.00,2013-02-01 04:55:00,
2013-01-31 23:00:00,20.0,12.1,30.32,NW,315,14.0,15.0,71,0.00,,---,0.01,VWS V14.00,2013-02-01 05:00:00,
2013-01-31 23:01:00,20.0,11.8,30.33,NW,315,10.0,15.0,70,0.00,,---,0.01,VWS V14.00,2013-02-01 05:01:00,
2013-01-31 23:06:00,20.0,11.8,30.33,NW,315,10.0,11.0,70,0.00,,---,0.01,VWS V14.00,2013-02-01 05:06:00,
2013-01-31 23:11:00,20.0,11.5,30.33,WNW,292,16.0,19.0,69,0.00,,---,0.01,VWS V14.00,2013-02-01 05:11:00,
2013-01-31 23:16:00,19.0,10.5,30.34,NW,315,11.0,11.0,69,0.00,,---,0.01,VWS V14.00,2013-02-01 05:16:00,
2013-01-31 23:21:00,19.0,10.2,30.34,NW,315,16.0,21.0,68,0.00,,---,0.01,VWS V14.00,2013-02-01 05:21:00,
2013-01-31 23:26:00,19.0,10.5,30.35,WNW,292,12.0,16.0,69,0.00,,---,0.01,VWS V14.00,2013-02-01 05:26:00,
2013-01-31 23:31:00,19.0,10.5,30.35,WNW,292,22.0,22.0,69,0.00,,---,0.01,VWS V14.00,2013-02-01 05:31:00,
2013-01-31 23:36:00,19.0,10.2,30.35,NW,315,17.0,17.0,68,0.00,,---,0.01,VWS V14.00,2013-02-01 05:36:00,
2013-01-31 23:41:00,19.0,10.2,30.35,WNW,292,19.0,19.0,68,0.00,,---,0.01,VWS V14.00,2013-02-01 05:41:00,
2013-01-31 23:46:00,18.0,9.6,30.36,WNW,292,25.0,25.0,69,0.00,,---,0.01,VWS V14.00,2013-02-01 05:46:00,
2013-01-31 23:51:00,18.0,8.6,30.35,WNW,292,27.0,27.0,66,0.00,,---,0.01,VWS V14.00,2013-02-01 05:51:00,
2013-01-31 23:56:00,18.0,8.6,30.36,WNW,292,21.0,21.0,66,0.00,,---,0.00,VWS V14.00,2013-02-01 05:56:00,